sensor_id;sensor_type;location;lat;lon;timestamp;temperature;humidity
65989;HTU21D;53592;51.402;6.054;2023-03-01T00:01:06;1.07;67.29
65989;HTU21D;53592;51.402;6.054;2023-03-01T00:03:33;1.06;67.28
65989;HTU21D;53592;51.402;6.054;2023-03-01T00:06:00;1.03;67.33
65989;HTU21D;53592;51.402;6.054;2023-03-01T00:08:26;0.98;67.46
65989;HTU21D;53592;51.402;6.054;2023-03-01T00:11:04;0.97;67.57
65989;HTU21D;53592;51.402;6.054;2023-03-01T00:13:30;1.02;67.59
65989;HTU21D;53592;51.402;6.054;2023-03-01T00:15:55;1.03;67.43
65989;HTU21D;53592;51.402;6.054;2023-03-01T00:18:21;1.02;67.57
65989;HTU21D;53592;51.402;6.054;2023-03-01T00:20:55;1.02;67.46
65989;HTU21D;53592;51.402;6.054;2023-03-01T00:23:21;0.98;67.55
65989;HTU21D;53592;51.402;6.054;2023-03-01T00:25:46;0.95;67.72
65989;HTU21D;53592;51.402;6.054;2023-03-01T00:28:12;0.92;67.73
65989;HTU21D;53592;51.402;6.054;2023-03-01T00:30:38;0.88;67.83
65989;HTU21D;53592;51.402;6.054;2023-03-01T00:33:03;0.86;67.95
65989;HTU21D;53592;51.402;6.054;2023-03-01T00:35:29;0.84;68.05
65989;HTU21D;53592;51.402;6.054;2023-03-01T00:37:56;0.83;68.25
65989;HTU21D;53592;51.402;6.054;2023-03-01T00:40:28;0.87;68.16
65989;HTU21D;53592;51.402;6.054;2023-03-01T00:42:54;0.83;68.24
65989;HTU21D;53592;51.402;6.054;2023-03-01T00:45:20;0.82;68.29
65989;HTU21D;53592;51.402;6.054;2023-03-01T00:47:46;0.83;68.32
65989;HTU21D;53592;51.402;6.054;2023-03-01T00:50:13;0.81;68.37
65989;HTU21D;53592;51.402;6.054;2023-03-01T00:52:38;0.83;68.34
65989;HTU21D;53592;51.402;6.054;2023-03-01T00:55:05;0.81;68.25
65989;HTU21D;53592;51.402;6.054;2023-03-01T00:57:31;0.80;68.28
65989;HTU21D;53592;51.402;6.054;2023-03-01T00:59:57;0.76;68.46
65989;HTU21D;53592;51.402;6.054;2023-03-01T01:02:23;0.76;68.51
65989;HTU21D;53592;51.402;6.054;2023-03-01T01:04:50;0.77;68.51
65989;HTU21D;53592;51.402;6.054;2023-03-01T01:07:15;0.77;68.56
65989;HTU21D;53592;51.402;6.054;2023-03-01T01:09:41;0.77;68.65
65989;HTU21D;53592;51.402;6.054;2023-03-01T01:12:07;0.78;68.55
65989;HTU21D;53592;51.402;6.054;2023-03-01T01:14:33;0.81;68.41
65989;HTU21D;53592;51.402;6.054;2023-03-01T01:16:58;0.80;68.26
65989;HTU21D;53592;51.402;6.054;2023-03-01T01:19:25;0.80;68.20
65989;HTU21D;53592;51.402;6.054;2023-03-01T01:21:50;0.79;68.19
65989;HTU21D;53592;51.402;6.054;2023-03-01T01:24:17;0.77;68.17
65989;HTU21D;53592;51.402;6.054;2023-03-01T01:26:43;0.73;68.08
65989;HTU21D;53592;51.402;6.054;2023-03-01T01:29:09;0.71;68.08
65989;HTU21D;53592;51.402;6.054;2023-03-01T01:31:36;0.67;68.31
65989;HTU21D;53592;51.402;6.054;2023-03-01T01:34:05;0.66;68.44
65989;HTU21D;53592;51.402;6.054;2023-03-01T01:36:32;0.61;68.36
65989;HTU21D;53592;51.402;6.054;2023-03-01T01:38:57;0.54;68.58
65989;HTU21D;53592;51.402;6.054;2023-03-01T01:41:25;0.50;68.92
65989;HTU21D;53592;51.402;6.054;2023-03-01T01:46:44;0.44;68.93
65989;HTU21D;53592;51.402;6.054;2023-03-01T01:52:24;0.39;69.13
65989;HTU21D;53592;51.402;6.054;2023-03-01T01:55:10;0.42;69.28
65989;HTU21D;53592;51.402;6.054;2023-03-01T01:57:40;0.47;69.13
65989;HTU21D;53592;51.402;6.054;2023-03-01T02:00:19;0.46;69.09
65989;HTU21D;53592;51.402;6.054;2023-03-01T02:02:49;0.43;69.11
65989;HTU21D;53592;51.402;6.054;2023-03-01T02:05:19;0.39;69.09
65989;HTU21D;53592;51.402;6.054;2023-03-01T02:07:47;0.31;69.29
65989;HTU21D;53592;51.402;6.054;2023-03-01T02:10:14;0.29;69.39
65989;HTU21D;53592;51.402;6.054;2023-03-01T02:12:40;0.29;69.32
65989;HTU21D;53592;51.402;6.054;2023-03-01T02:15:06;0.29;69.38
65989;HTU21D;53592;51.402;6.054;2023-03-01T02:17:33;0.27;69.52
65989;HTU21D;53592;51.402;6.054;2023-03-01T02:20:28;0.24;69.54
65989;HTU21D;53592;51.402;6.054;2023-03-01T02:22:55;0.19;69.71
65989;HTU21D;53592;51.402;6.054;2023-03-01T02:25:47;0.16;69.84
65989;HTU21D;53592;51.402;6.054;2023-03-01T02:30:40;0.22;69.87
65989;HTU21D;53592;51.402;6.054;2023-03-01T02:33:26;0.20;70.02
65989;HTU21D;53592;51.402;6.054;2023-03-01T02:35:54;0.22;69.94
65989;HTU21D;53592;51.402;6.054;2023-03-01T02:38:22;0.19;69.92
65989;HTU21D;53592;51.402;6.054;2023-03-01T02:40:52;0.18;69.91
65989;HTU21D;53592;51.402;6.054;2023-03-01T02:43:24;0.13;70.02
65989;HTU21D;53592;51.402;6.054;2023-03-01T02:45:52;0.09;70.05
65989;HTU21D;53592;51.402;6.054;2023-03-01T02:48:19;0.03;70.39
65989;HTU21D;53592;51.402;6.054;2023-03-01T02:51:10;0.05;70.52
65989;HTU21D;53592;51.402;6.054;2023-03-01T02:54:05;0.09;70.42
65989;HTU21D;53592;51.402;6.054;2023-03-01T02:56:33;0.17;70.16
65989;HTU21D;53592;51.402;6.054;2023-03-01T02:59:00;0.21;70.02
65989;HTU21D;53592;51.402;6.054;2023-03-01T03:01:27;0.24;69.85
65989;HTU21D;53592;51.402;6.054;2023-03-01T03:04:12;0.24;69.82
65989;HTU21D;53592;51.402;6.054;2023-03-01T03:06:45;0.24;69.73
65989;HTU21D;53592;51.402;6.054;2023-03-01T03:09:12;0.20;69.75
65989;HTU21D;53592;51.402;6.054;2023-03-01T03:11:38;0.14;69.74
65989;HTU21D;53592;51.402;6.054;2023-03-01T03:14:05;0.09;70.00
65989;HTU21D;53592;51.402;6.054;2023-03-01T03:16:31;0.09;70.13
65989;HTU21D;53592;51.402;6.054;2023-03-01T03:18:56;0.13;70.03
65989;HTU21D;53592;51.402;6.054;2023-03-01T03:21:31;0.12;70.00
65989;HTU21D;53592;51.402;6.054;2023-03-01T03:23:57;0.12;70.06
65989;HTU21D;53592;51.402;6.054;2023-03-01T03:26:23;0.10;69.94
65989;HTU21D;53592;51.402;6.054;2023-03-01T03:28:49;0.10;69.90
65989;HTU21D;53592;51.402;6.054;2023-03-01T03:31:14;0.09;70.00
65989;HTU21D;53592;51.402;6.054;2023-03-01T03:33:40;0.09;70.03
65989;HTU21D;53592;51.402;6.054;2023-03-01T03:36:06;0.09;70.00
65989;HTU21D;53592;51.402;6.054;2023-03-01T03:38:32;0.10;69.92
65989;HTU21D;53592;51.402;6.054;2023-03-01T03:41:06;0.05;69.99
65989;HTU21D;53592;51.402;6.054;2023-03-01T03:43:34;-0.01;70.12
65989;HTU21D;53592;51.402;6.054;2023-03-01T03:46:01;-0.07;70.39
65989;HTU21D;53592;51.402;6.054;2023-03-01T03:48:33;-0.09;70.45
65989;HTU21D;53592;51.402;6.054;2023-03-01T03:50:59;-0.11;70.61
65989;HTU21D;53592;51.402;6.054;2023-03-01T03:53:26;-0.12;70.71
65989;HTU21D;53592;51.402;6.054;2023-03-01T03:55:53;-0.11;70.76
65989;HTU21D;53592;51.402;6.054;2023-03-01T03:58:21;-0.06;70.61
65989;HTU21D;53592;51.402;6.054;2023-03-01T04:00:50;-0.02;70.37
65989;HTU21D;53592;51.402;6.054;2023-03-01T04:03:17;-0.05;70.29
65989;HTU21D;53592;51.402;6.054;2023-03-01T04:05:44;-0.07;70.41
65989;HTU21D;53592;51.402;6.054;2023-03-01T04:08:11;-0.10;70.45
65989;HTU21D;53592;51.402;6.054;2023-03-01T04:10:39;-0.12;70.47
65989;HTU21D;53592;51.402;6.054;2023-03-01T04:13:06;-0.11;70.48
65989;HTU21D;53592;51.402;6.054;2023-03-01T04:15:33;-0.12;70.39
65989;HTU21D;53592;51.402;6.054;2023-03-01T04:18:00;-0.21;70.48
65989;HTU21D;53592;51.402;6.054;2023-03-01T04:20:28;-0.27;70.78
65989;HTU21D;53592;51.402;6.054;2023-03-01T04:23:01;-0.30;70.87
65989;HTU21D;53592;51.402;6.054;2023-03-01T04:25:51;-0.30;70.92
65989;HTU21D;53592;51.402;6.054;2023-03-01T04:28:22;-0.29;70.92
65989;HTU21D;53592;51.402;6.054;2023-03-01T04:30:50;-0.28;70.89
65989;HTU21D;53592;51.402;6.054;2023-03-01T04:33:16;-0.25;70.74
65989;HTU21D;53592;51.402;6.054;2023-03-01T04:35:41;-0.23;70.71
65989;HTU21D;53592;51.402;6.054;2023-03-01T04:38:08;-0.23;70.65
65989;HTU21D;53592;51.402;6.054;2023-03-01T04:40:34;-0.28;70.63
65989;HTU21D;53592;51.402;6.054;2023-03-01T04:42:59;-0.32;70.74
65989;HTU21D;53592;51.402;6.054;2023-03-01T04:45:25;-0.41;70.79
65989;HTU21D;53592;51.402;6.054;2023-03-01T04:47:51;-0.41;70.82
65989;HTU21D;53592;51.402;6.054;2023-03-01T04:50:20;-0.47;70.95
65989;HTU21D;53592;51.402;6.054;2023-03-01T04:52:48;-0.50;71.00
65989;HTU21D;53592;51.402;6.054;2023-03-01T04:55:13;-0.57;71.06
65989;HTU21D;53592;51.402;6.054;2023-03-01T04:57:39;-0.66;71.35
65989;HTU21D;53592;51.402;6.054;2023-03-01T05:00:08;-0.67;71.66
65989;HTU21D;53592;51.402;6.054;2023-03-01T05:02:59;-0.66;71.74
65989;HTU21D;53592;51.402;6.054;2023-03-01T05:05:28;-0.62;71.74
65989;HTU21D;53592;51.402;6.054;2023-03-01T05:07:57;-0.57;71.61
65989;HTU21D;53592;51.402;6.054;2023-03-01T05:10:24;-0.53;71.41
65989;HTU21D;53592;51.402;6.054;2023-03-01T05:12:50;-0.51;71.34
65989;HTU21D;53592;51.402;6.054;2023-03-01T05:15:18;-0.54;71.44
65989;HTU21D;53592;51.402;6.054;2023-03-01T05:17:43;-0.53;71.61
65989;HTU21D;53592;51.402;6.054;2023-03-01T05:20:10;-0.53;71.59
65989;HTU21D;53592;51.402;6.054;2023-03-01T05:22:36;-0.55;71.66
65989;HTU21D;53592;51.402;6.054;2023-03-01T05:25:03;-0.58;71.71
65989;HTU21D;53592;51.402;6.054;2023-03-01T05:27:28;-0.61;71.74
65989;HTU21D;53592;51.402;6.054;2023-03-01T05:29:55;-0.62;71.73
65989;HTU21D;53592;51.402;6.054;2023-03-01T05:32:21;-0.61;71.51
65989;HTU21D;53592;51.402;6.054;2023-03-01T05:34:46;-0.65;71.51
65989;HTU21D;53592;51.402;6.054;2023-03-01T05:37:12;-0.66;71.51
65989;HTU21D;53592;51.402;6.054;2023-03-01T05:39:39;-0.66;71.41
65989;HTU21D;53592;51.402;6.054;2023-03-01T05:42:05;-0.67;71.39
65989;HTU21D;53592;51.402;6.054;2023-03-01T05:44:30;-0.66;71.31
65989;HTU21D;53592;51.402;6.054;2023-03-01T05:46:57;-0.67;71.18
65989;HTU21D;53592;51.402;6.054;2023-03-01T05:49:23;-0.68;71.18
65989;HTU21D;53592;51.402;6.054;2023-03-01T05:51:52;-0.65;71.13
65989;HTU21D;53592;51.402;6.054;2023-03-01T05:54:21;-0.64;71.02
65989;HTU21D;53592;51.402;6.054;2023-03-01T05:56:47;-0.69;71.12
65989;HTU21D;53592;51.402;6.054;2023-03-01T05:59:13;-0.71;71.22
65989;HTU21D;53592;51.402;6.054;2023-03-01T06:01:41;-0.70;71.15
65989;HTU21D;53592;51.402;6.054;2023-03-01T06:04:07;-0.70;71.07
65989;HTU21D;53592;51.402;6.054;2023-03-01T06:06:36;-0.69;71.13
65989;HTU21D;53592;51.402;6.054;2023-03-01T06:09:03;-0.70;71.40
65989;HTU21D;53592;51.402;6.054;2023-03-01T06:11:29;-0.70;71.51
65989;HTU21D;53592;51.402;6.054;2023-03-01T06:13:54;-0.71;71.49
65989;HTU21D;53592;51.402;6.054;2023-03-01T06:16:20;-0.71;71.54
65989;HTU21D;53592;51.402;6.054;2023-03-01T06:18:45;-0.72;71.61
65989;HTU21D;53592;51.402;6.054;2023-03-01T06:21:11;-0.72;71.61
65989;HTU21D;53592;51.402;6.054;2023-03-01T06:23:37;-0.74;71.70
65989;HTU21D;53592;51.402;6.054;2023-03-01T06:26:07;-0.75;71.74
65989;HTU21D;53592;51.402;6.054;2023-03-01T06:28:33;-0.75;71.75
65989;HTU21D;53592;51.402;6.054;2023-03-01T06:30:58;-0.73;71.63
65989;HTU21D;53592;51.402;6.054;2023-03-01T06:33:24;-0.73;71.61
65989;HTU21D;53592;51.402;6.054;2023-03-01T06:35:51;-0.75;71.69
65989;HTU21D;53592;51.402;6.054;2023-03-01T06:38:16;-0.75;71.66
65989;HTU21D;53592;51.402;6.054;2023-03-01T06:40:45;-0.74;71.71
65989;HTU21D;53592;51.402;6.054;2023-03-01T06:43:16;-0.74;72.01
65989;HTU21D;53592;51.402;6.054;2023-03-01T06:45:41;-0.72;72.12
65989;HTU21D;53592;51.402;6.054;2023-03-01T06:48:08;-0.75;72.37
65989;HTU21D;53592;51.402;6.054;2023-03-01T06:50:34;-0.75;72.34
65989;HTU21D;53592;51.402;6.054;2023-03-01T06:53:00;-0.74;72.47
65989;HTU21D;53592;51.402;6.054;2023-03-01T06:55:26;-0.73;72.45
65989;HTU21D;53592;51.402;6.054;2023-03-01T06:57:59;-0.71;72.37
65989;HTU21D;53592;51.402;6.054;2023-03-01T07:00:26;-0.70;72.47
65989;HTU21D;53592;51.402;6.054;2023-03-01T07:02:52;-0.67;72.49
65989;HTU21D;53592;51.402;6.054;2023-03-01T07:05:18;-0.66;72.48
65989;HTU21D;53592;51.402;6.054;2023-03-01T07:07:43;-0.65;72.60
65989;HTU21D;53592;51.402;6.054;2023-03-01T07:10:09;-0.60;73.05
65989;HTU21D;53592;51.402;6.054;2023-03-01T07:12:35;-0.56;73.68
65989;HTU21D;53592;51.402;6.054;2023-03-01T07:15:00;-0.41;74.33
65989;HTU21D;53592;51.402;6.054;2023-03-01T07:17:26;-0.23;74.96
65989;HTU21D;53592;51.402;6.054;2023-03-01T07:19:51;0.06;75.45
65989;HTU21D;53592;51.402;6.054;2023-03-01T07:22:17;0.48;75.02
65989;HTU21D;53592;51.402;6.054;2023-03-01T07:24:43;0.90;73.97
65989;HTU21D;53592;51.402;6.054;2023-03-01T07:27:09;1.45;72.58
65989;HTU21D;53592;51.402;6.054;2023-03-01T07:29:35;1.91;70.62
65989;HTU21D;53592;51.402;6.054;2023-03-01T07:32:02;2.34;69.67
65989;HTU21D;53592;51.402;6.054;2023-03-01T07:34:28;2.71;68.20
65989;HTU21D;53592;51.402;6.054;2023-03-01T07:36:54;3.03;67.27
65989;HTU21D;53592;51.402;6.054;2023-03-01T07:39:19;3.48;66.14
65989;HTU21D;53592;51.402;6.054;2023-03-01T07:41:45;3.89;65.21
65989;HTU21D;53592;51.402;6.054;2023-03-01T07:44:10;4.37;63.87
65989;HTU21D;53592;51.402;6.054;2023-03-01T07:46:36;4.81;62.38
65989;HTU21D;53592;51.402;6.054;2023-03-01T07:49:02;5.30;61.22
65989;HTU21D;53592;51.402;6.054;2023-03-01T07:51:27;5.75;60.22
65989;HTU21D;53592;51.402;6.054;2023-03-01T07:53:53;6.19;58.50
65989;HTU21D;53592;51.402;6.054;2023-03-01T07:56:18;6.54;57.50
65989;HTU21D;53592;51.402;6.054;2023-03-01T07:58:45;6.82;56.38
65989;HTU21D;53592;51.402;6.054;2023-03-01T08:01:17;7.10;55.51
65989;HTU21D;53592;51.402;6.054;2023-03-01T08:03:43;7.19;55.17
65989;HTU21D;53592;51.402;6.054;2023-03-01T08:06:12;7.27;54.78
65989;HTU21D;53592;51.402;6.054;2023-03-01T08:08:38;7.30;54.67
65989;HTU21D;53592;51.402;6.054;2023-03-01T08:11:06;7.25;54.41
65989;HTU21D;53592;51.402;6.054;2023-03-01T08:13:33;7.15;54.62
65989;HTU21D;53592;51.402;6.054;2023-03-01T08:16:04;7.01;54.84
65989;HTU21D;53592;51.402;6.054;2023-03-01T08:18:30;6.85;54.46
65989;HTU21D;53592;51.402;6.054;2023-03-01T08:21:04;6.60;54.69
65989;HTU21D;53592;51.402;6.054;2023-03-01T08:23:30;6.36;54.31
65989;HTU21D;53592;51.402;6.054;2023-03-01T08:26:13;5.97;55.45
65989;HTU21D;53592;51.402;6.054;2023-03-01T08:28:39;5.81;56.69
65989;HTU21D;53592;51.402;6.054;2023-03-01T08:31:21;5.56;56.46
65989;HTU21D;53592;51.402;6.054;2023-03-01T08:33:48;5.24;55.55
65989;HTU21D;53592;51.402;6.054;2023-03-01T08:36:17;4.78;56.49
65989;HTU21D;53592;51.402;6.054;2023-03-01T08:38:43;4.54;58.25
65989;HTU21D;53592;51.402;6.054;2023-03-01T08:41:09;4.45;58.64
65989;HTU21D;53592;51.402;6.054;2023-03-01T08:43:34;4.43;59.59
65989;HTU21D;53592;51.402;6.054;2023-03-01T08:46:00;4.47;60.13
65989;HTU21D;53592;51.402;6.054;2023-03-01T08:48:27;4.57;60.03
65989;HTU21D;53592;51.402;6.054;2023-03-01T08:50:53;4.87;60.73
65989;HTU21D;53592;51.402;6.054;2023-03-01T08:53:18;5.30;59.12
65989;HTU21D;53592;51.402;6.054;2023-03-01T08:55:44;5.62;57.99
65989;HTU21D;53592;51.402;6.054;2023-03-01T08:58:09;5.97;57.13
65989;HTU21D;53592;51.402;6.054;2023-03-01T09:00:35;6.44;56.02
65989;HTU21D;53592;51.402;6.054;2023-03-01T09:03:01;6.69;54.49
65989;HTU21D;53592;51.402;6.054;2023-03-01T09:05:26;6.86;54.36
65989;HTU21D;53592;51.402;6.054;2023-03-01T09:07:52;7.30;53.65
65989;HTU21D;53592;51.402;6.054;2023-03-01T09:10:17;7.64;53.20
65989;HTU21D;53592;51.402;6.054;2023-03-01T09:12:43;7.92;52.17
65989;HTU21D;53592;51.402;6.054;2023-03-01T09:15:09;8.20;51.13
65989;HTU21D;53592;51.402;6.054;2023-03-01T09:17:35;8.36;50.69
65989;HTU21D;53592;51.402;6.054;2023-03-01T09:20:00;8.56;49.92
65989;HTU21D;53592;51.402;6.054;2023-03-01T09:22:26;8.76;49.97
65989;HTU21D;53592;51.402;6.054;2023-03-01T09:24:51;8.89;50.06
65989;HTU21D;53592;51.402;6.054;2023-03-01T09:27:17;9.38;50.59
65989;HTU21D;53592;51.402;6.054;2023-03-01T09:29:44;9.39;46.45
65989;HTU21D;53592;51.402;6.054;2023-03-01T09:32:10;9.15;46.43
65989;HTU21D;53592;51.402;6.054;2023-03-01T09:34:36;8.85;47.47
65989;HTU21D;53592;51.402;6.054;2023-03-01T09:37:21;9.11;47.05
65989;HTU21D;53592;51.402;6.054;2023-03-01T09:39:47;9.23;46.62
65989;HTU21D;53592;51.402;6.054;2023-03-01T09:42:13;9.24;47.22
65989;HTU21D;53592;51.402;6.054;2023-03-01T09:47:31;9.39;46.84
65989;HTU21D;53592;51.402;6.054;2023-03-01T09:52:40;9.34;44.80
65989;HTU21D;53592;51.402;6.054;2023-03-01T09:55:16;9.38;44.89
65989;HTU21D;53592;51.402;6.054;2023-03-01T09:57:45;9.24;45.23
65989;HTU21D;53592;51.402;6.054;2023-03-01T10:00:42;9.26;44.63
65989;HTU21D;53592;51.402;6.054;2023-03-01T10:08:54;9.32;46.06
65989;HTU21D;53592;51.402;6.054;2023-03-01T10:11:24;9.61;44.35
65989;HTU21D;53592;51.402;6.054;2023-03-01T10:14:09;9.33;44.13
65989;HTU21D;53592;51.402;6.054;2023-03-01T10:19:36;9.02;44.59
65989;HTU21D;53592;51.402;6.054;2023-03-01T10:22:17;9.06;43.75
65989;HTU21D;53592;51.402;6.054;2023-03-01T10:24:47;8.94;42.90
65989;HTU21D;53592;51.402;6.054;2023-03-01T10:27:26;8.73;44.42
65989;HTU21D;53592;51.402;6.054;2023-03-01T10:30:12;8.85;45.01
65989;HTU21D;53592;51.402;6.054;2023-03-01T10:32:39;8.93;45.04
65989;HTU21D;53592;51.402;6.054;2023-03-01T10:35:22;9.00;44.08
65989;HTU21D;53592;51.402;6.054;2023-03-01T10:38:11;8.88;44.06
65989;HTU21D;53592;51.402;6.054;2023-03-01T10:40:57;8.95;44.63
65989;HTU21D;53592;51.402;6.054;2023-03-01T10:43:45;8.95;43.67
65989;HTU21D;53592;51.402;6.054;2023-03-01T10:46:28;8.80;43.81
65989;HTU21D;53592;51.402;6.054;2023-03-01T10:51:32;8.58;44.77
65989;HTU21D;53592;51.402;6.054;2023-03-01T10:53:58;8.58;43.76
65989;HTU21D;53592;51.402;6.054;2023-03-01T10:56:23;8.43;44.16
65989;HTU21D;53592;51.402;6.054;2023-03-01T10:59:00;8.33;44.83
65989;HTU21D;53592;51.402;6.054;2023-03-01T11:01:34;8.31;44.65
65989;HTU21D;53592;51.402;6.054;2023-03-01T11:04:12;8.24;44.95
65989;HTU21D;53592;51.402;6.054;2023-03-01T11:06:40;8.22;45.16
65989;HTU21D;53592;51.402;6.054;2023-03-01T11:09:21;8.11;46.44
65989;HTU21D;53592;51.402;6.054;2023-03-01T11:11:55;8.17;46.57
65989;HTU21D;53592;51.402;6.054;2023-03-01T11:14:35;8.37;45.90
65989;HTU21D;53592;51.402;6.054;2023-03-01T11:17:14;8.27;45.96
65989;HTU21D;53592;51.402;6.054;2023-03-01T11:19:41;8.28;47.18
65989;HTU21D;53592;51.402;6.054;2023-03-01T11:22:18;8.49;46.54
65989;HTU21D;53592;51.402;6.054;2023-03-01T11:24:54;8.45;45.49
65989;HTU21D;53592;51.402;6.054;2023-03-01T11:27:36;8.51;46.01
65989;HTU21D;53592;51.402;6.054;2023-03-01T11:30:19;8.59;44.74
65989;HTU21D;53592;51.402;6.054;2023-03-01T11:33:03;8.38;45.22
65989;HTU21D;53592;51.402;6.054;2023-03-01T11:35:30;8.41;45.65
65989;HTU21D;53592;51.402;6.054;2023-03-01T11:40:37;8.50;45.38
65989;HTU21D;53592;51.402;6.054;2023-03-01T11:52:06;8.56;45.16
65989;HTU21D;53592;51.402;6.054;2023-03-01T12:05:54;8.43;45.70
65989;HTU21D;53592;51.402;6.054;2023-03-01T12:08:35;8.57;45.82
65989;HTU21D;53592;51.402;6.054;2023-03-01T12:11:16;8.65;44.23
65989;HTU21D;53592;51.402;6.054;2023-03-01T12:22:14;8.70;44.35
65989;HTU21D;53592;51.402;6.054;2023-03-01T12:30:29;8.82;42.94
65989;HTU21D;53592;51.402;6.054;2023-03-01T12:38:17;8.73;43.44
65989;HTU21D;53592;51.402;6.054;2023-03-01T12:49:02;8.98;44.03
65989;HTU21D;53592;51.402;6.054;2023-03-01T12:51:34;9.00;43.92
65989;HTU21D;53592;51.402;6.054;2023-03-01T12:54:14;9.00;44.06
65989;HTU21D;53592;51.402;6.054;2023-03-01T12:56:42;9.02;43.32
65989;HTU21D;53592;51.402;6.054;2023-03-01T12:59:18;9.05;42.77
65989;HTU21D;53592;51.402;6.054;2023-03-01T13:07:41;9.01;41.65
65989;HTU21D;53592;51.402;6.054;2023-03-01T13:17:55;8.96;43.60
65989;HTU21D;53592;51.402;6.054;2023-03-01T13:20:58;8.97;43.03
65989;HTU21D;53592;51.402;6.054;2023-03-01T13:23:31;8.90;42.91
65989;HTU21D;53592;51.402;6.054;2023-03-01T13:33:50;8.96;43.27
65989;HTU21D;53592;51.402;6.054;2023-03-01T13:36:46;9.02;42.86
65989;HTU21D;53592;51.402;6.054;2023-03-01T13:39:31;8.95;42.77
65989;HTU21D;53592;51.402;6.054;2023-03-01T13:42:25;8.96;42.68
65989;HTU21D;53592;51.402;6.054;2023-03-01T13:44:49;8.91;42.65
65989;HTU21D;53592;51.402;6.054;2023-03-01T13:47:18;8.88;41.93
65989;HTU21D;53592;51.402;6.054;2023-03-01T13:50:01;8.79;41.29
65989;HTU21D;53592;51.402;6.054;2023-03-01T13:52:48;8.71;42.84
65989;HTU21D;53592;51.402;6.054;2023-03-01T13:57:50;8.70;42.30
65989;HTU21D;53592;51.402;6.054;2023-03-01T14:00:39;8.63;42.72
65989;HTU21D;53592;51.402;6.054;2023-03-01T14:03:17;8.63;43.37
65989;HTU21D;53592;51.402;6.054;2023-03-01T14:06:07;8.71;42.41
65989;HTU21D;53592;51.402;6.054;2023-03-01T14:08:35;8.64;42.53
65989;HTU21D;53592;51.402;6.054;2023-03-01T14:19:45;8.45;43.41
65989;HTU21D;53592;51.402;6.054;2023-03-01T14:24:51;8.38;43.72
65989;HTU21D;53592;51.402;6.054;2023-03-01T14:27:18;8.34;44.12
65989;HTU21D;53592;51.402;6.054;2023-03-01T14:29:54;8.35;44.19
65989;HTU21D;53592;51.402;6.054;2023-03-01T14:34:52;8.21;43.09
65989;HTU21D;53592;51.402;6.054;2023-03-01T14:37:29;8.19;43.73
65989;HTU21D;53592;51.402;6.054;2023-03-01T14:39:57;8.24;43.70
65989;HTU21D;53592;51.402;6.054;2023-03-01T14:42:27;8.18;43.87
65989;HTU21D;53592;51.402;6.054;2023-03-01T14:44:55;8.14;43.40
65989;HTU21D;53592;51.402;6.054;2023-03-01T14:47:30;8.09;43.39
65989;HTU21D;53592;51.402;6.054;2023-03-01T14:50:24;8.06;43.24
65989;HTU21D;53592;51.402;6.054;2023-03-01T14:52:56;8.05;43.78
65989;HTU21D;53592;51.402;6.054;2023-03-01T14:55:33;8.08;43.00
65989;HTU21D;53592;51.402;6.054;2023-03-01T14:58:04;7.96;43.35
65989;HTU21D;53592;51.402;6.054;2023-03-01T15:00:33;7.93;43.80
65989;HTU21D;53592;51.402;6.054;2023-03-01T15:03:38;7.93;44.17
65989;HTU21D;53592;51.402;6.054;2023-03-01T15:06:07;7.98;44.52
65989;HTU21D;53592;51.402;6.054;2023-03-01T15:08:35;7.96;44.70
65989;HTU21D;53592;51.402;6.054;2023-03-01T15:11:27;8.00;44.50
65989;HTU21D;53592;51.402;6.054;2023-03-01T15:13:53;7.93;44.45
65989;HTU21D;53592;51.402;6.054;2023-03-01T15:18:54;7.98;45.01
65989;HTU21D;53592;51.402;6.054;2023-03-01T15:21:29;7.99;44.81
65989;HTU21D;53592;51.402;6.054;2023-03-01T15:24:05;7.94;44.37
65989;HTU21D;53592;51.402;6.054;2023-03-01T15:26:41;7.83;45.35
65989;HTU21D;53592;51.402;6.054;2023-03-01T15:29:20;7.86;45.99
65989;HTU21D;53592;51.402;6.054;2023-03-01T15:34:29;7.89;44.40
65989;HTU21D;53592;51.402;6.054;2023-03-01T15:36:58;7.79;44.45
65989;HTU21D;53592;51.402;6.054;2023-03-01T15:41:56;7.73;44.20
65989;HTU21D;53592;51.402;6.054;2023-03-01T15:44:34;7.68;44.99
65989;HTU21D;53592;51.402;6.054;2023-03-01T15:47:01;7.56;45.56
65989;HTU21D;53592;51.402;6.054;2023-03-01T15:49:43;7.54;45.87
65989;HTU21D;53592;51.402;6.054;2023-03-01T15:52:17;7.54;46.13
65989;HTU21D;53592;51.402;6.054;2023-03-01T15:54:46;7.52;46.35
65989;HTU21D;53592;51.402;6.054;2023-03-01T15:57:12;7.46;46.19
65989;HTU21D;53592;51.402;6.054;2023-03-01T15:59:41;7.43;46.56
65989;HTU21D;53592;51.402;6.054;2023-03-01T16:02:11;7.48;45.25
65989;HTU21D;53592;51.402;6.054;2023-03-01T16:04:38;7.38;45.69
65989;HTU21D;53592;51.402;6.054;2023-03-01T16:07:04;7.34;45.85
65989;HTU21D;53592;51.402;6.054;2023-03-01T16:09:29;7.31;45.67
65989;HTU21D;53592;51.402;6.054;2023-03-01T16:11:55;7.26;46.14
65989;HTU21D;53592;51.402;6.054;2023-03-01T16:14:21;7.23;46.53
65989;HTU21D;53592;51.402;6.054;2023-03-01T16:16:47;7.25;46.38
65989;HTU21D;53592;51.402;6.054;2023-03-01T16:19:14;7.20;46.81
65989;HTU21D;53592;51.402;6.054;2023-03-01T16:21:40;7.16;46.57
65989;HTU21D;53592;51.402;6.054;2023-03-01T16:24:08;7.17;46.62
65989;HTU21D;53592;51.402;6.054;2023-03-01T16:26:34;7.10;46.51
65989;HTU21D;53592;51.402;6.054;2023-03-01T16:29:00;7.08;46.41
65989;HTU21D;53592;51.402;6.054;2023-03-01T16:31:25;6.99;46.45
65989;HTU21D;53592;51.402;6.054;2023-03-01T16:33:58;6.96;46.83
65989;HTU21D;53592;51.402;6.054;2023-03-01T16:36:26;6.94;46.89
65989;HTU21D;53592;51.402;6.054;2023-03-01T16:38:55;6.90;47.20
65989;HTU21D;53592;51.402;6.054;2023-03-01T16:41:22;6.87;47.65
65989;HTU21D;53592;51.402;6.054;2023-03-01T16:43:49;6.83;47.83
65989;HTU21D;53592;51.402;6.054;2023-03-01T16:46:21;6.79;47.86
65989;HTU21D;53592;51.402;6.054;2023-03-01T16:48:48;6.76;48.11
65989;HTU21D;53592;51.402;6.054;2023-03-01T16:51:14;6.72;48.57
65989;HTU21D;53592;51.402;6.054;2023-03-01T16:53:40;6.69;48.49
65989;HTU21D;53592;51.402;6.054;2023-03-01T16:56:08;6.61;48.79
65989;HTU21D;53592;51.402;6.054;2023-03-01T16:58:36;6.56;48.97
65989;HTU21D;53592;51.402;6.054;2023-03-01T17:01:19;6.51;49.26
65989;HTU21D;53592;51.402;6.054;2023-03-01T17:03:46;6.49;49.11
65989;HTU21D;53592;51.402;6.054;2023-03-01T17:06:16;6.41;49.39
65989;HTU21D;53592;51.402;6.054;2023-03-01T17:08:43;6.34;49.52
65989;HTU21D;53592;51.402;6.054;2023-03-01T17:11:11;6.25;49.74
65989;HTU21D;53592;51.402;6.054;2023-03-01T17:13:38;6.22;49.82
65989;HTU21D;53592;51.402;6.054;2023-03-01T17:16:06;6.16;50.24
65989;HTU21D;53592;51.402;6.054;2023-03-01T17:18:32;6.11;50.35
65989;HTU21D;53592;51.402;6.054;2023-03-01T17:20:58;6.07;50.52
65989;HTU21D;53592;51.402;6.054;2023-03-01T17:23:25;5.96;50.41
65989;HTU21D;53592;51.402;6.054;2023-03-01T17:25:52;5.92;50.67
65989;HTU21D;53592;51.402;6.054;2023-03-01T17:28:25;5.81;50.76
65989;HTU21D;53592;51.402;6.054;2023-03-01T17:30:51;5.76;50.98
65989;HTU21D;53592;51.402;6.054;2023-03-01T17:33:18;5.71;51.12
65989;HTU21D;53592;51.402;6.054;2023-03-01T17:35:44;5.65;51.30
65989;HTU21D;53592;51.402;6.054;2023-03-01T17:38:15;5.62;51.57
65989;HTU21D;53592;51.402;6.054;2023-03-01T17:40:42;5.60;51.63
65989;HTU21D;53592;51.402;6.054;2023-03-01T17:43:11;5.57;51.78
65989;HTU21D;53592;51.402;6.054;2023-03-01T17:45:38;5.52;51.91